Terminal Aerodrome Forecast
Issued by NWS Sterling, VA

Home | Current Version | Previous Version | Text Only | Print | Product List | Glossary On
Versions: 1 2 3 4 5 6 7 8 9 10 11 12 13 14 15 16 17 18 19 20 21 22 23 24 25
000
FTUS41 KLWX 041436 AAB
TAFBWI
TAF AMD
KBWI 041436Z 0415/0518 05006KT 5SM -SHRA OVC020
     FM041800 05005KT P6SM -SHRA OVC025
     FM042200 08005KT P6SM OVC035
     FM050700 VRB03KT 4SM BR BKN200
     FM051000 00000KT 3SM BR BKN250
     FM051300 VRB03KT P6SM SCT250=

USA.gov is the U.S. government's official web portal to all federal, state and local government web resources and services.